sensor_id;sensor_type;location;lat;lon;timestamp;P1;durP1;ratioP1;P2;durP2;ratioP2
54831;SDS011;40730;53.068;6.572;2024-03-08T00:01:09;36.22;;;18.80;;
54831;SDS011;40730;53.068;6.572;2024-03-08T00:03:35;42.75;;;21.05;;
54831;SDS011;40730;53.068;6.572;2024-03-08T00:06:00;37.35;;;19.65;;
54831;SDS011;40730;53.068;6.572;2024-03-08T00:08:26;39.30;;;20.05;;
54831;SDS011;40730;53.068;6.572;2024-03-08T00:10:52;41.40;;;22.35;;
54831;SDS011;40730;53.068;6.572;2024-03-08T00:13:17;40.97;;;21.17;;
54831;SDS011;40730;53.068;6.572;2024-03-08T00:15:43;39.05;;;22.45;;
54831;SDS011;40730;53.068;6.572;2024-03-08T00:18:09;39.95;;;21.17;;
54831;SDS011;40730;53.068;6.572;2024-03-08T00:20:36;43.30;;;23.10;;
54831;SDS011;40730;53.068;6.572;2024-03-08T00:23:02;36.10;;;19.98;;
54831;SDS011;40730;53.068;6.572;2024-03-08T00:25:27;40.47;;;21.90;;
54831;SDS011;40730;53.068;6.572;2024-03-08T00:27:53;37.70;;;21.33;;
54831;SDS011;40730;53.068;6.572;2024-03-08T00:30:21;40.88;;;21.38;;
54831;SDS011;40730;53.068;6.572;2024-03-08T00:32:50;40.55;;;23.00;;
54831;SDS011;40730;53.068;6.572;2024-03-08T00:35:15;39.25;;;21.33;;
54831;SDS011;40730;53.068;6.572;2024-03-08T00:37:41;43.72;;;23.40;;
54831;SDS011;40730;53.068;6.572;2024-03-08T00:40:07;50.55;;;23.27;;
54831;SDS011;40730;53.068;6.572;2024-03-08T00:42:34;44.80;;;22.58;;
54831;SDS011;40730;53.068;6.572;2024-03-08T00:45:00;40.80;;;22.27;;
54831;SDS011;40730;53.068;6.572;2024-03-08T00:47:26;46.22;;;23.30;;
54831;SDS011;40730;53.068;6.572;2024-03-08T00:49:52;48.63;;;23.80;;
54831;SDS011;40730;53.068;6.572;2024-03-08T00:52:18;47.35;;;23.42;;
54831;SDS011;40730;53.068;6.572;2024-03-08T00:54:44;50.17;;;23.83;;
54831;SDS011;40730;53.068;6.572;2024-03-08T00:57:10;44.22;;;24.25;;
54831;SDS011;40730;53.068;6.572;2024-03-08T00:59:37;43.20;;;23.38;;
54831;SDS011;40730;53.068;6.572;2024-03-08T01:02:03;46.55;;;23.17;;
54831;SDS011;40730;53.068;6.572;2024-03-08T01:04:29;49.03;;;24.75;;
54831;SDS011;40730;53.068;6.572;2024-03-08T01:06:58;50.05;;;24.30;;
54831;SDS011;40730;53.068;6.572;2024-03-08T01:09:24;48.67;;;24.00;;
54831;SDS011;40730;53.068;6.572;2024-03-08T01:11:51;42.70;;;21.85;;
54831;SDS011;40730;53.068;6.572;2024-03-08T01:14:19;49.22;;;24.35;;
54831;SDS011;40730;53.068;6.572;2024-03-08T01:16:47;48.47;;;24.10;;
54831;SDS011;40730;53.068;6.572;2024-03-08T01:19:13;46.65;;;22.25;;
54831;SDS011;40730;53.068;6.572;2024-03-08T01:21:40;47.88;;;24.58;;
54831;SDS011;40730;53.068;6.572;2024-03-08T01:24:06;43.53;;;22.30;;
54831;SDS011;40730;53.068;6.572;2024-03-08T01:26:32;49.75;;;24.23;;
54831;SDS011;40730;53.068;6.572;2024-03-08T01:28:59;43.97;;;22.48;;
54831;SDS011;40730;53.068;6.572;2024-03-08T01:31:25;44.70;;;23.20;;
54831;SDS011;40730;53.068;6.572;2024-03-08T01:33:50;43.35;;;22.23;;
54831;SDS011;40730;53.068;6.572;2024-03-08T01:36:16;48.00;;;24.30;;
54831;SDS011;40730;53.068;6.572;2024-03-08T01:38:44;48.53;;;23.83;;
54831;SDS011;40730;53.068;6.572;2024-03-08T01:41:10;46.28;;;23.80;;
54831;SDS011;40730;53.068;6.572;2024-03-08T01:43:37;45.70;;;22.02;;
54831;SDS011;40730;53.068;6.572;2024-03-08T01:46:03;43.90;;;23.90;;
54831;SDS011;40730;53.068;6.572;2024-03-08T01:48:30;49.50;;;24.20;;
54831;SDS011;40730;53.068;6.572;2024-03-08T01:50:57;48.88;;;23.05;;
54831;SDS011;40730;53.068;6.572;2024-03-08T01:53:29;44.55;;;21.50;;
54831;SDS011;40730;53.068;6.572;2024-03-08T01:55:58;40.03;;;20.38;;
54831;SDS011;40730;53.068;6.572;2024-03-08T01:58:26;44.15;;;22.08;;
54831;SDS011;40730;53.068;6.572;2024-03-08T02:00:53;45.40;;;21.35;;
54831;SDS011;40730;53.068;6.572;2024-03-08T02:03:21;44.22;;;23.58;;
54831;SDS011;40730;53.068;6.572;2024-03-08T02:05:47;46.38;;;22.52;;
54831;SDS011;40730;53.068;6.572;2024-03-08T02:08:13;42.72;;;20.90;;
54831;SDS011;40730;53.068;6.572;2024-03-08T02:10:40;44.22;;;23.75;;
54831;SDS011;40730;53.068;6.572;2024-03-08T02:13:07;43.88;;;22.70;;
54831;SDS011;40730;53.068;6.572;2024-03-08T02:18:17;41.55;;;22.02;;
54831;SDS011;40730;53.068;6.572;2024-03-08T02:20:43;46.42;;;21.98;;
54831;SDS011;40730;53.068;6.572;2024-03-08T02:23:12;40.40;;;22.65;;
54831;SDS011;40730;53.068;6.572;2024-03-08T02:25:39;43.58;;;22.45;;
54831;SDS011;40730;53.068;6.572;2024-03-08T02:28:04;47.45;;;23.73;;
54831;SDS011;40730;53.068;6.572;2024-03-08T02:30:30;45.85;;;24.05;;
54831;SDS011;40730;53.068;6.572;2024-03-08T02:32:56;45.80;;;22.42;;
54831;SDS011;40730;53.068;6.572;2024-03-08T02:35:22;43.45;;;22.58;;
54831;SDS011;40730;53.068;6.572;2024-03-08T02:37:48;47.47;;;22.88;;
54831;SDS011;40730;53.068;6.572;2024-03-08T02:40:13;45.72;;;24.05;;
54831;SDS011;40730;53.068;6.572;2024-03-08T02:42:39;44.42;;;22.95;;
54831;SDS011;40730;53.068;6.572;2024-03-08T02:45:05;47.78;;;23.90;;
54831;SDS011;40730;53.068;6.572;2024-03-08T02:47:31;44.97;;;23.55;;
54831;SDS011;40730;53.068;6.572;2024-03-08T02:49:57;45.08;;;23.00;;
54831;SDS011;40730;53.068;6.572;2024-03-08T02:52:22;46.67;;;21.67;;
54831;SDS011;40730;53.068;6.572;2024-03-08T02:54:48;40.38;;;21.05;;
54831;SDS011;40730;53.068;6.572;2024-03-08T02:57:14;45.85;;;23.35;;
54831;SDS011;40730;53.068;6.572;2024-03-08T02:59:41;48.92;;;23.90;;
54831;SDS011;40730;53.068;6.572;2024-03-08T03:02:07;48.42;;;22.60;;
54831;SDS011;40730;53.068;6.572;2024-03-08T03:04:35;43.33;;;22.33;;
54831;SDS011;40730;53.068;6.572;2024-03-08T03:07:00;47.17;;;23.02;;
54831;SDS011;40730;53.068;6.572;2024-03-08T03:09:26;48.40;;;24.23;;
54831;SDS011;40730;53.068;6.572;2024-03-08T03:11:56;39.53;;;20.45;;
54831;SDS011;40730;53.068;6.572;2024-03-08T03:14:21;46.85;;;22.25;;
54831;SDS011;40730;53.068;6.572;2024-03-08T03:16:47;47.05;;;21.27;;
54831;SDS011;40730;53.068;6.572;2024-03-08T03:19:13;48.50;;;23.45;;
54831;SDS011;40730;53.068;6.572;2024-03-08T03:21:40;44.80;;;21.80;;
54831;SDS011;40730;53.068;6.572;2024-03-08T03:24:08;44.60;;;23.23;;
54831;SDS011;40730;53.068;6.572;2024-03-08T03:26:38;45.03;;;22.50;;
54831;SDS011;40730;53.068;6.572;2024-03-08T03:29:07;48.00;;;23.65;;
54831;SDS011;40730;53.068;6.572;2024-03-08T03:31:34;47.22;;;23.55;;
54831;SDS011;40730;53.068;6.572;2024-03-08T03:34:01;46.10;;;22.85;;
54831;SDS011;40730;53.068;6.572;2024-03-08T03:36:29;47.47;;;22.83;;
54831;SDS011;40730;53.068;6.572;2024-03-08T03:38:55;45.97;;;23.02;;
54831;SDS011;40730;53.068;6.572;2024-03-08T03:41:34;43.88;;;22.02;;
54831;SDS011;40730;53.068;6.572;2024-03-08T03:44:00;44.83;;;22.42;;
54831;SDS011;40730;53.068;6.572;2024-03-08T03:46:25;41.88;;;22.85;;
54831;SDS011;40730;53.068;6.572;2024-03-08T03:48:52;49.20;;;22.20;;
54831;SDS011;40730;53.068;6.572;2024-03-08T03:51:19;40.22;;;19.58;;
54831;SDS011;40730;53.068;6.572;2024-03-08T03:53:45;45.92;;;22.58;;
54831;SDS011;40730;53.068;6.572;2024-03-08T03:56:10;42.45;;;21.63;;
54831;SDS011;40730;53.068;6.572;2024-03-08T03:58:36;42.08;;;22.88;;
54831;SDS011;40730;53.068;6.572;2024-03-08T04:01:04;41.05;;;22.02;;
54831;SDS011;40730;53.068;6.572;2024-03-08T04:03:29;42.72;;;22.20;;
54831;SDS011;40730;53.068;6.572;2024-03-08T04:05:55;44.90;;;23.20;;
54831;SDS011;40730;53.068;6.572;2024-03-08T04:08:21;42.65;;;22.27;;
54831;SDS011;40730;53.068;6.572;2024-03-08T04:10:48;48.72;;;23.00;;
54831;SDS011;40730;53.068;6.572;2024-03-08T04:13:14;44.22;;;23.45;;
54831;SDS011;40730;53.068;6.572;2024-03-08T04:15:40;43.03;;;22.40;;
54831;SDS011;40730;53.068;6.572;2024-03-08T04:18:09;42.75;;;20.63;;
54831;SDS011;40730;53.068;6.572;2024-03-08T04:20:34;46.10;;;22.30;;
54831;SDS011;40730;53.068;6.572;2024-03-08T04:23:00;46.28;;;24.02;;
54831;SDS011;40730;53.068;6.572;2024-03-08T04:25:27;41.25;;;21.88;;
54831;SDS011;40730;53.068;6.572;2024-03-08T04:27:53;48.05;;;22.67;;
54831;SDS011;40730;53.068;6.572;2024-03-08T04:30:18;47.53;;;23.42;;
54831;SDS011;40730;53.068;6.572;2024-03-08T04:32:46;46.03;;;22.48;;
54831;SDS011;40730;53.068;6.572;2024-03-08T04:35:12;38.35;;;20.58;;
54831;SDS011;40730;53.068;6.572;2024-03-08T04:37:38;46.65;;;22.50;;
54831;SDS011;40730;53.068;6.572;2024-03-08T04:40:04;39.25;;;20.33;;
54831;SDS011;40730;53.068;6.572;2024-03-08T04:42:30;44.42;;;21.08;;
54831;SDS011;40730;53.068;6.572;2024-03-08T04:44:57;43.60;;;21.90;;
54831;SDS011;40730;53.068;6.572;2024-03-08T04:47:24;44.38;;;21.27;;
54831;SDS011;40730;53.068;6.572;2024-03-08T04:49:50;43.92;;;22.63;;
54831;SDS011;40730;53.068;6.572;2024-03-08T04:52:15;41.58;;;19.20;;
54831;SDS011;40730;53.068;6.572;2024-03-08T04:54:41;44.13;;;21.55;;
54831;SDS011;40730;53.068;6.572;2024-03-08T04:57:07;41.40;;;22.17;;
54831;SDS011;40730;53.068;6.572;2024-03-08T04:59:33;45.67;;;21.15;;
54831;SDS011;40730;53.068;6.572;2024-03-08T05:01:59;39.40;;;21.00;;
54831;SDS011;40730;53.068;6.572;2024-03-08T05:04:24;39.97;;;21.08;;
54831;SDS011;40730;53.068;6.572;2024-03-08T05:06:50;45.03;;;21.55;;
54831;SDS011;40730;53.068;6.572;2024-03-08T05:09:15;37.80;;;20.30;;
54831;SDS011;40730;53.068;6.572;2024-03-08T05:11:43;37.80;;;20.40;;
54831;SDS011;40730;53.068;6.572;2024-03-08T05:14:10;36.97;;;19.83;;
54831;SDS011;40730;53.068;6.572;2024-03-08T05:16:37;38.97;;;20.75;;
54831;SDS011;40730;53.068;6.572;2024-03-08T05:19:03;42.53;;;21.30;;
54831;SDS011;40730;53.068;6.572;2024-03-08T05:21:28;40.38;;;20.70;;
54831;SDS011;40730;53.068;6.572;2024-03-08T05:23:54;39.33;;;21.08;;
54831;SDS011;40730;53.068;6.572;2024-03-08T05:26:20;44.58;;;20.67;;
54831;SDS011;40730;53.068;6.572;2024-03-08T05:28:47;40.58;;;20.95;;
54831;SDS011;40730;53.068;6.572;2024-03-08T05:31:20;45.55;;;20.10;;
54831;SDS011;40730;53.068;6.572;2024-03-08T05:33:47;42.42;;;21.60;;
54831;SDS011;40730;53.068;6.572;2024-03-08T05:36:13;38.47;;;19.65;;
54831;SDS011;40730;53.068;6.572;2024-03-08T05:38:41;45.70;;;21.42;;
54831;SDS011;40730;53.068;6.572;2024-03-08T05:41:08;38.78;;;20.50;;
54831;SDS011;40730;53.068;6.572;2024-03-08T05:43:34;40.08;;;20.85;;
54831;SDS011;40730;53.068;6.572;2024-03-08T05:46:00;40.42;;;20.25;;
54831;SDS011;40730;53.068;6.572;2024-03-08T05:48:25;40.95;;;20.13;;
54831;SDS011;40730;53.068;6.572;2024-03-08T05:50:51;42.85;;;20.52;;
54831;SDS011;40730;53.068;6.572;2024-03-08T05:53:16;38.45;;;20.77;;
54831;SDS011;40730;53.068;6.572;2024-03-08T05:55:42;41.55;;;20.50;;
54831;SDS011;40730;53.068;6.572;2024-03-08T05:58:08;42.03;;;20.27;;
54831;SDS011;40730;53.068;6.572;2024-03-08T06:00:34;38.42;;;19.92;;
54831;SDS011;40730;53.068;6.572;2024-03-08T06:03:01;40.80;;;20.33;;
54831;SDS011;40730;53.068;6.572;2024-03-08T06:05:27;38.65;;;20.35;;
54831;SDS011;40730;53.068;6.572;2024-03-08T06:07:53;38.25;;;19.65;;
54831;SDS011;40730;53.068;6.572;2024-03-08T06:10:19;36.30;;;19.67;;
54831;SDS011;40730;53.068;6.572;2024-03-08T06:12:44;39.40;;;20.10;;
54831;SDS011;40730;53.068;6.572;2024-03-08T06:15:10;36.15;;;19.77;;
54831;SDS011;40730;53.068;6.572;2024-03-08T06:17:40;41.60;;;20.73;;
54831;SDS011;40730;53.068;6.572;2024-03-08T06:20:06;39.25;;;19.55;;
54831;SDS011;40730;53.068;6.572;2024-03-08T06:22:37;44.33;;;21.65;;
54831;SDS011;40730;53.068;6.572;2024-03-08T06:25:06;41.88;;;20.80;;
54831;SDS011;40730;53.068;6.572;2024-03-08T06:27:32;42.53;;;20.83;;
54831;SDS011;40730;53.068;6.572;2024-03-08T06:29:59;38.67;;;18.67;;
54831;SDS011;40730;53.068;6.572;2024-03-08T06:32:25;44.53;;;21.20;;
54831;SDS011;40730;53.068;6.572;2024-03-08T06:34:50;38.90;;;20.13;;
54831;SDS011;40730;53.068;6.572;2024-03-08T06:37:16;43.45;;;20.58;;
54831;SDS011;40730;53.068;6.572;2024-03-08T06:39:47;42.63;;;20.08;;
54831;SDS011;40730;53.068;6.572;2024-03-08T06:42:13;38.55;;;20.52;;
54831;SDS011;40730;53.068;6.572;2024-03-08T06:44:39;39.15;;;20.52;;
54831;SDS011;40730;53.068;6.572;2024-03-08T06:47:13;40.00;;;20.02;;
54831;SDS011;40730;53.068;6.572;2024-03-08T06:49:40;37.30;;;18.80;;
54831;SDS011;40730;53.068;6.572;2024-03-08T06:52:06;42.60;;;20.65;;
54831;SDS011;40730;53.068;6.572;2024-03-08T06:54:34;37.95;;;20.98;;
54831;SDS011;40730;53.068;6.572;2024-03-08T06:57:01;39.88;;;20.45;;
54831;SDS011;40730;53.068;6.572;2024-03-08T06:59:28;38.28;;;19.77;;
54831;SDS011;40730;53.068;6.572;2024-03-08T07:01:54;38.78;;;19.77;;
54831;SDS011;40730;53.068;6.572;2024-03-08T07:04:20;36.53;;;19.67;;
54831;SDS011;40730;53.068;6.572;2024-03-08T07:06:47;36.78;;;19.33;;
54831;SDS011;40730;53.068;6.572;2024-03-08T07:09:15;34.53;;;20.02;;
54831;SDS011;40730;53.068;6.572;2024-03-08T07:11:42;36.75;;;19.38;;
54831;SDS011;40730;53.068;6.572;2024-03-08T07:14:07;36.20;;;19.13;;
54831;SDS011;40730;53.068;6.572;2024-03-08T07:16:34;36.88;;;18.83;;
54831;SDS011;40730;53.068;6.572;2024-03-08T07:19:00;34.30;;;19.17;;
54831;SDS011;40730;53.068;6.572;2024-03-08T07:21:26;34.67;;;18.50;;
54831;SDS011;40730;53.068;6.572;2024-03-08T07:23:52;39.03;;;18.85;;
54831;SDS011;40730;53.068;6.572;2024-03-08T07:26:27;35.35;;;18.92;;
54831;SDS011;40730;53.068;6.572;2024-03-08T07:28:52;31.15;;;18.63;;
54831;SDS011;40730;53.068;6.572;2024-03-08T07:31:22;35.47;;;19.90;;
54831;SDS011;40730;53.068;6.572;2024-03-08T07:33:50;33.00;;;15.75;;
54831;SDS011;40730;53.068;6.572;2024-03-08T07:36:15;32.60;;;16.80;;
54831;SDS011;40730;53.068;6.572;2024-03-08T07:38:41;34.00;;;18.95;;
54831;SDS011;40730;53.068;6.572;2024-03-08T07:41:07;31.27;;;17.38;;
54831;SDS011;40730;53.068;6.572;2024-03-08T07:43:32;36.53;;;18.50;;
54831;SDS011;40730;53.068;6.572;2024-03-08T07:45:58;36.22;;;18.50;;
54831;SDS011;40730;53.068;6.572;2024-03-08T07:48:23;34.30;;;18.83;;
54831;SDS011;40730;53.068;6.572;2024-03-08T07:50:49;31.88;;;18.83;;
54831;SDS011;40730;53.068;6.572;2024-03-08T07:53:15;32.75;;;18.50;;
54831;SDS011;40730;53.068;6.572;2024-03-08T07:55:40;32.13;;;17.50;;
54831;SDS011;40730;53.068;6.572;2024-03-08T07:58:08;28.45;;;16.75;;
54831;SDS011;40730;53.068;6.572;2024-03-08T08:00:35;33.03;;;19.15;;
54831;SDS011;40730;53.068;6.572;2024-03-08T08:03:02;32.90;;;17.15;;
54831;SDS011;40730;53.068;6.572;2024-03-08T08:05:28;33.67;;;18.90;;
54831;SDS011;40730;53.068;6.572;2024-03-08T08:07:54;28.40;;;15.90;;
54831;SDS011;40730;53.068;6.572;2024-03-08T08:10:20;32.20;;;19.38;;
54831;SDS011;40730;53.068;6.572;2024-03-08T08:12:49;31.85;;;18.70;;
54831;SDS011;40730;53.068;6.572;2024-03-08T08:15:16;35.22;;;19.90;;
54831;SDS011;40730;53.068;6.572;2024-03-08T08:17:42;30.85;;;17.15;;
54831;SDS011;40730;53.068;6.572;2024-03-08T08:20:12;27.13;;;16.60;;
54831;SDS011;40730;53.068;6.572;2024-03-08T08:22:39;31.10;;;18.00;;
54831;SDS011;40730;53.068;6.572;2024-03-08T08:25:05;26.42;;;16.83;;
54831;SDS011;40730;53.068;6.572;2024-03-08T08:27:31;30.98;;;18.92;;
54831;SDS011;40730;53.068;6.572;2024-03-08T08:29:57;28.77;;;18.20;;
54831;SDS011;40730;53.068;6.572;2024-03-08T08:32:22;29.90;;;19.58;;
54831;SDS011;40730;53.068;6.572;2024-03-08T08:34:48;26.35;;;15.38;;
54831;SDS011;40730;53.068;6.572;2024-03-08T08:37:14;28.33;;;18.67;;
54831;SDS011;40730;53.068;6.572;2024-03-08T08:39:39;28.45;;;19.30;;
54831;SDS011;40730;53.068;6.572;2024-03-08T08:42:05;29.75;;;17.75;;
54831;SDS011;40730;53.068;6.572;2024-03-08T08:44:34;28.95;;;18.13;;
54831;SDS011;40730;53.068;6.572;2024-03-08T08:47:02;28.40;;;18.52;;
54831;SDS011;40730;53.068;6.572;2024-03-08T08:49:28;27.95;;;19.00;;
54831;SDS011;40730;53.068;6.572;2024-03-08T08:51:55;27.85;;;18.08;;
54831;SDS011;40730;53.068;6.572;2024-03-08T08:54:23;29.08;;;20.60;;
54831;SDS011;40730;53.068;6.572;2024-03-08T08:56:50;29.90;;;19.05;;
54831;SDS011;40730;53.068;6.572;2024-03-08T08:59:16;27.75;;;18.50;;
54831;SDS011;40730;53.068;6.572;2024-03-08T09:01:45;27.58;;;19.08;;
54831;SDS011;40730;53.068;6.572;2024-03-08T09:04:15;29.00;;;18.65;;
54831;SDS011;40730;53.068;6.572;2024-03-08T09:06:41;28.00;;;19.20;;
54831;SDS011;40730;53.068;6.572;2024-03-08T09:09:07;27.27;;;18.45;;
54831;SDS011;40730;53.068;6.572;2024-03-08T09:11:38;26.38;;;18.45;;
54831;SDS011;40730;53.068;6.572;2024-03-08T09:14:06;26.15;;;18.83;;
54831;SDS011;40730;53.068;6.572;2024-03-08T09:16:32;27.75;;;17.60;;
54831;SDS011;40730;53.068;6.572;2024-03-08T09:18:58;27.08;;;18.50;;
54831;SDS011;40730;53.068;6.572;2024-03-08T09:21:24;25.38;;;18.63;;
54831;SDS011;40730;53.068;6.572;2024-03-08T09:23:50;26.45;;;18.73;;
54831;SDS011;40730;53.068;6.572;2024-03-08T09:26:16;25.77;;;18.85;;
54831;SDS011;40730;53.068;6.572;2024-03-08T09:28:41;25.00;;;17.38;;
54831;SDS011;40730;53.068;6.572;2024-03-08T09:31:07;26.75;;;18.45;;
54831;SDS011;40730;53.068;6.572;2024-03-08T09:33:33;24.83;;;18.27;;
54831;SDS011;40730;53.068;6.572;2024-03-08T09:35:58;25.67;;;18.33;;
54831;SDS011;40730;53.068;6.572;2024-03-08T09:38:24;27.30;;;20.00;;
54831;SDS011;40730;53.068;6.572;2024-03-08T09:40:50;26.05;;;18.52;;
54831;SDS011;40730;53.068;6.572;2024-03-08T09:43:18;25.67;;;18.52;;
54831;SDS011;40730;53.068;6.572;2024-03-08T09:45:44;25.48;;;18.85;;
54831;SDS011;40730;53.068;6.572;2024-03-08T09:48:11;24.02;;;18.50;;
54831;SDS011;40730;53.068;6.572;2024-03-08T09:50:39;25.75;;;18.65;;
54831;SDS011;40730;53.068;6.572;2024-03-08T09:53:06;26.80;;;19.17;;
54831;SDS011;40730;53.068;6.572;2024-03-08T09:55:34;27.63;;;16.58;;
54831;SDS011;40730;53.068;6.572;2024-03-08T09:58:07;25.63;;;18.58;;
54831;SDS011;40730;53.068;6.572;2024-03-08T10:00:55;25.98;;;18.85;;
54831;SDS011;40730;53.068;6.572;2024-03-08T10:03:23;27.45;;;19.20;;
54831;SDS011;40730;53.068;6.572;2024-03-08T10:05:51;25.42;;;17.92;;
54831;SDS011;40730;53.068;6.572;2024-03-08T10:08:17;27.65;;;18.65;;
54831;SDS011;40730;53.068;6.572;2024-03-08T10:10:42;26.38;;;17.17;;
54831;SDS011;40730;53.068;6.572;2024-03-08T10:13:08;26.15;;;18.38;;
54831;SDS011;40730;53.068;6.572;2024-03-08T10:15:35;25.13;;;18.85;;
54831;SDS011;40730;53.068;6.572;2024-03-08T10:18:01;26.98;;;16.88;;
54831;SDS011;40730;53.068;6.572;2024-03-08T10:20:27;26.13;;;18.75;;
54831;SDS011;40730;53.068;6.572;2024-03-08T10:23:01;26.27;;;18.65;;
54831;SDS011;40730;53.068;6.572;2024-03-08T10:25:28;24.33;;;17.83;;
54831;SDS011;40730;53.068;6.572;2024-03-08T10:27:55;29.95;;;20.90;;
54831;SDS011;40730;53.068;6.572;2024-03-08T10:30:21;28.42;;;19.83;;
54831;SDS011;40730;53.068;6.572;2024-03-08T10:32:50;27.83;;;19.38;;
54831;SDS011;40730;53.068;6.572;2024-03-08T10:35:16;25.85;;;18.85;;
54831;SDS011;40730;53.068;6.572;2024-03-08T10:37:49;27.10;;;20.17;;
54831;SDS011;40730;53.068;6.572;2024-03-08T10:40:24;26.40;;;18.10;;
54831;SDS011;40730;53.068;6.572;2024-03-08T10:42:58;24.67;;;19.30;;
54831;SDS011;40730;53.068;6.572;2024-03-08T10:45:29;23.73;;;18.90;;
54831;SDS011;40730;53.068;6.572;2024-03-08T10:50:44;24.95;;;20.00;;
54831;SDS011;40730;53.068;6.572;2024-03-08T10:53:15;26.10;;;18.98;;
54831;SDS011;40730;53.068;6.572;2024-03-08T10:55:43;23.67;;;19.33;;
54831;SDS011;40730;53.068;6.572;2024-03-08T10:58:10;25.45;;;19.95;;
54831;SDS011;40730;53.068;6.572;2024-03-08T11:00:36;25.48;;;19.30;;
54831;SDS011;40730;53.068;6.572;2024-03-08T11:03:02;27.73;;;20.85;;
54831;SDS011;40730;53.068;6.572;2024-03-08T11:05:32;25.52;;;18.10;;
54831;SDS011;40730;53.068;6.572;2024-03-08T11:10:57;25.13;;;19.23;;
54831;SDS011;40730;53.068;6.572;2024-03-08T11:13:35;25.67;;;20.25;;
54831;SDS011;40730;53.068;6.572;2024-03-08T11:16:48;28.27;;;19.77;;
54831;SDS011;40730;53.068;6.572;2024-03-08T11:18:54;26.95;;;19.90;;
54831;SDS011;40730;53.068;6.572;2024-03-08T11:21:25;27.02;;;20.85;;
54831;SDS011;40730;53.068;6.572;2024-03-08T11:24:01;23.33;;;20.77;;
54831;SDS011;40730;53.068;6.572;2024-03-08T11:26:30;24.05;;;19.33;;
54831;SDS011;40730;53.068;6.572;2024-03-08T11:29:32;26.02;;;19.67;;
54831;SDS011;40730;53.068;6.572;2024-03-08T11:32:11;25.30;;;20.10;;
54831;SDS011;40730;53.068;6.572;2024-03-08T11:34:47;21.83;;;18.92;;
54831;SDS011;40730;53.068;6.572;2024-03-08T11:37:17;24.48;;;18.88;;
54831;SDS011;40730;53.068;6.572;2024-03-08T11:39:50;22.63;;;19.25;;
54831;SDS011;40730;53.068;6.572;2024-03-08T11:42:17;23.95;;;19.15;;
54831;SDS011;40730;53.068;6.572;2024-03-08T11:44:44;21.63;;;18.63;;
54831;SDS011;40730;53.068;6.572;2024-03-08T11:47:11;27.38;;;19.13;;
54831;SDS011;40730;53.068;6.572;2024-03-08T11:49:40;23.27;;;17.55;;
54831;SDS011;40730;53.068;6.572;2024-03-08T11:52:16;23.27;;;19.02;;
54831;SDS011;40730;53.068;6.572;2024-03-08T11:54:43;25.33;;;19.25;;
54831;SDS011;40730;53.068;6.572;2024-03-08T11:57:20;25.63;;;19.95;;
54831;SDS011;40730;53.068;6.572;2024-03-08T11:59:51;23.10;;;18.92;;
54831;SDS011;40730;53.068;6.572;2024-03-08T12:02:23;26.00;;;19.58;;
54831;SDS011;40730;53.068;6.572;2024-03-08T12:04:59;25.27;;;20.80;;
54831;SDS011;40730;53.068;6.572;2024-03-08T12:07:25;24.33;;;19.48;;
54831;SDS011;40730;53.068;6.572;2024-03-08T12:10:35;23.83;;;18.88;;
54831;SDS011;40730;53.068;6.572;2024-03-08T12:12:51;26.00;;;20.13;;
54831;SDS011;40730;53.068;6.572;2024-03-08T12:15:21;24.48;;;19.98;;
54831;SDS011;40730;53.068;6.572;2024-03-08T12:17:50;23.92;;;19.75;;
54831;SDS011;40730;53.068;6.572;2024-03-08T12:20:17;23.45;;;18.27;;
54831;SDS011;40730;53.068;6.572;2024-03-08T12:22:46;21.10;;;18.77;;
54831;SDS011;40730;53.068;6.572;2024-03-08T12:25:12;21.38;;;18.63;;
54831;SDS011;40730;53.068;6.572;2024-03-08T12:27:39;22.80;;;18.38;;
54831;SDS011;40730;53.068;6.572;2024-03-08T12:30:15;20.98;;;17.42;;
54831;SDS011;40730;53.068;6.572;2024-03-08T12:35:20;22.95;;;19.83;;
54831;SDS011;40730;53.068;6.572;2024-03-08T12:37:48;25.73;;;19.67;;
54831;SDS011;40730;53.068;6.572;2024-03-08T12:40:16;23.02;;;18.10;;
54831;SDS011;40730;53.068;6.572;2024-03-08T12:42:45;21.42;;;17.77;;
54831;SDS011;40730;53.068;6.572;2024-03-08T12:45:14;23.88;;;17.92;;
54831;SDS011;40730;53.068;6.572;2024-03-08T12:47:40;19.10;;;16.63;;
54831;SDS011;40730;53.068;6.572;2024-03-08T12:50:07;21.85;;;18.98;;
54831;SDS011;40730;53.068;6.572;2024-03-08T12:52:36;19.98;;;17.80;;
54831;SDS011;40730;53.068;6.572;2024-03-08T12:55:02;23.38;;;18.77;;
54831;SDS011;40730;53.068;6.572;2024-03-08T12:57:27;21.55;;;17.08;;
54831;SDS011;40730;53.068;6.572;2024-03-08T12:59:53;21.88;;;17.98;;
54831;SDS011;40730;53.068;6.572;2024-03-08T13:02:19;20.23;;;17.67;;
54831;SDS011;40730;53.068;6.572;2024-03-08T13:04:45;20.80;;;16.67;;
54831;SDS011;40730;53.068;6.572;2024-03-08T13:07:20;20.80;;;16.97;;
54831;SDS011;40730;53.068;6.572;2024-03-08T13:09:46;21.42;;;18.02;;
54831;SDS011;40730;53.068;6.572;2024-03-08T13:12:12;21.10;;;17.05;;
54831;SDS011;40730;53.068;6.572;2024-03-08T13:14:40;20.60;;;17.50;;
54831;SDS011;40730;53.068;6.572;2024-03-08T13:17:05;19.10;;;15.80;;
54831;SDS011;40730;53.068;6.572;2024-03-08T13:19:35;20.10;;;16.75;;
54831;SDS011;40730;53.068;6.572;2024-03-08T13:22:03;21.33;;;17.65;;
54831;SDS011;40730;53.068;6.572;2024-03-08T13:24:29;22.85;;;17.48;;
54831;SDS011;40730;53.068;6.572;2024-03-08T13:26:55;22.27;;;17.80;;
54831;SDS011;40730;53.068;6.572;2024-03-08T13:29:21;18.95;;;15.98;;
54831;SDS011;40730;53.068;6.572;2024-03-08T13:31:48;19.80;;;16.95;;
54831;SDS011;40730;53.068;6.572;2024-03-08T13:34:17;20.40;;;17.50;;
54831;SDS011;40730;53.068;6.572;2024-03-08T13:36:43;20.02;;;17.00;;
54831;SDS011;40730;53.068;6.572;2024-03-08T13:39:10;21.30;;;17.27;;
54831;SDS011;40730;53.068;6.572;2024-03-08T13:41:40;18.20;;;16.27;;
54831;SDS011;40730;53.068;6.572;2024-03-08T13:44:13;18.88;;;16.10;;
54831;SDS011;40730;53.068;6.572;2024-03-08T13:46:39;17.15;;;14.45;;
54831;SDS011;40730;53.068;6.572;2024-03-08T13:49:05;18.05;;;16.15;;
54831;SDS011;40730;53.068;6.572;2024-03-08T13:51:33;19.13;;;15.35;;
54831;SDS011;40730;53.068;6.572;2024-03-08T13:53:59;17.35;;;15.43;;
54831;SDS011;40730;53.068;6.572;2024-03-08T13:56:25;18.70;;;16.23;;
54831;SDS011;40730;53.068;6.572;2024-03-08T13:58:52;18.88;;;15.82;;
54831;SDS011;40730;53.068;6.572;2024-03-08T14:01:17;17.38;;;15.50;;
54831;SDS011;40730;53.068;6.572;2024-03-08T14:03:43;18.98;;;16.00;;
54831;SDS011;40730;53.068;6.572;2024-03-08T14:06:09;18.92;;;14.70;;
54831;SDS011;40730;53.068;6.572;2024-03-08T14:08:35;17.05;;;14.93;;
54831;SDS011;40730;53.068;6.572;2024-03-08T14:11:05;16.70;;;14.68;;
54831;SDS011;40730;53.068;6.572;2024-03-08T14:13:43;20.48;;;16.20;;
54831;SDS011;40730;53.068;6.572;2024-03-08T14:16:12;16.23;;;14.45;;
54831;SDS011;40730;53.068;6.572;2024-03-08T14:18:38;19.23;;;15.57;;
54831;SDS011;40730;53.068;6.572;2024-03-08T14:21:04;17.67;;;14.65;;
54831;SDS011;40730;53.068;6.572;2024-03-08T14:23:30;17.75;;;14.23;;
54831;SDS011;40730;53.068;6.572;2024-03-08T14:25:57;18.05;;;13.95;;
54831;SDS011;40730;53.068;6.572;2024-03-08T14:28:24;16.05;;;13.48;;
54831;SDS011;40730;53.068;6.572;2024-03-08T14:30:52;16.77;;;13.50;;
54831;SDS011;40730;53.068;6.572;2024-03-08T14:33:18;18.33;;;13.40;;